createdAt,value
2022-09-13T00:00:37.970Z,996.2302856
2022-09-13T00:01:37.367Z,996.2302856
2022-09-13T00:02:32.574Z,996.2248535
2022-09-13T00:03:32.911Z,996.163269
2022-09-13T00:04:27.575Z,996.2008057
2022-09-13T00:05:29.924Z,996.2114258
2022-09-13T00:06:30.090Z,996.2036133
2022-09-13T00:07:29.347Z,996.1259155
2022-09-13T00:08:23.927Z,996.1126709
2022-09-13T00:09:21.149Z,996.0456543
2022-09-13T00:10:20.103Z,996.0401611
2022-09-13T00:11:20.948Z,996.0535278
2022-09-13T00:12:23.388Z,996.0641479
2022-09-13T00:13:20.533Z,995.9919434
2022-09-13T00:14:20.546Z,995.9679565
2022-09-13T00:15:15.312Z,995.9412231
2022-09-13T00:16:15.062Z,995.8903198
2022-09-13T00:17:21.065Z,995.9625244
2022-09-13T00:18:21.827Z,995.9650269
2022-09-13T00:19:17.020Z,995.9411011
2022-09-13T00:20:19.951Z,995.9489136
2022-09-13T00:21:14.031Z,995.975647
2022-09-13T00:22:13.799Z,995.9570923
2022-09-13T00:23:10.279Z,995.9944458
2022-09-13T00:24:12.309Z,996.0050049
2022-09-13T00:25:59.161Z,995.8876343
2022-09-13T00:26:21.742Z,995.895752
2022-09-13T00:27:25.643Z,995.8322144
2022-09-13T00:28:25.602Z,995.8643799
2022-09-13T00:29:20.945Z,995.8215332
2022-09-13T00:30:21.047Z,995.7976685
2022-09-13T00:31:19.257Z,995.7387695
2022-09-13T00:32:22.303Z,995.776123
2022-09-13T00:33:18.518Z,995.7197876
2022-09-13T00:35:21.397Z,995.7704468
2022-09-13T00:36:21.110Z,995.7543945
2022-09-13T00:37:17.761Z,995.7996826
2022-09-13T00:38:18.648Z,995.7329102
2022-09-13T00:40:13.882Z,995.7246704
2022-09-13T00:41:15.022Z,995.6820068
2022-09-13T00:42:15.152Z,995.6820068
2022-09-13T00:43:15.011Z,995.7086792
2022-09-13T00:44:13.023Z,995.7192993
2022-09-13T00:45:16.444Z,995.7435913
2022-09-13T00:46:12.098Z,995.7729492
2022-09-13T00:47:21.879Z,995.7623291
2022-09-13T00:48:14.450Z,995.7355957
2022-09-13T00:49:18.028Z,995.7543945
2022-09-13T00:50:12.244Z,995.7543945
2022-09-13T00:51:13.960Z,995.7171021
2022-09-13T00:52:14.070Z,995.7463989
2022-09-13T00:53:13.963Z,995.7224731
2022-09-13T00:54:09.060Z,995.7410278
2022-09-13T00:55:12.673Z,995.7598267
2022-09-13T00:56:06.804Z,995.7516479
2022-09-13T00:57:09.239Z,995.7089233
2022-09-13T00:58:02.176Z,995.7516479
2022-09-13T00:59:08.217Z,995.7729492
2022-09-13T01:00:00.625Z,995.7462769
2022-09-13T01:01:01.687Z,995.8156128
2022-09-13T01:01:57.520Z,995.7301636
2022-09-13T01:02:57.219Z,995.7996826
2022-09-13T01:03:52.561Z,995.7489624
2022-09-13T01:04:52.364Z,995.7595825
2022-09-13T01:05:47.695Z,995.8048706
2022-09-13T01:06:47.452Z,995.7140503
2022-09-13T01:07:47.457Z,995.727478
2022-09-13T01:08:44.721Z,995.727478
2022-09-13T01:10:41.517Z,995.6288452
2022-09-13T01:11:44.134Z,995.6797485
2022-09-13T01:12:41.147Z,995.618103
2022-09-13T01:13:42.488Z,995.7249756
2022-09-13T01:14:37.257Z,995.6743774
2022-09-13T01:15:36.929Z,995.6582642
2022-09-13T01:16:33.099Z,995.6048584
2022-09-13T01:17:36.637Z,995.6154785
2022-09-13T01:18:29.409Z,995.6607056
2022-09-13T01:19:29.047Z,995.6956177
2022-09-13T01:21:12.188Z,995.6851807
2022-09-13T01:21:57.246Z,995.6347046
2022-09-13T01:22:55.710Z,995.6054688
2022-09-13T01:23:57.985Z,995.6079712
2022-09-13T01:24:59.013Z,995.6907959
2022-09-13T01:25:53.248Z,995.6932983
2022-09-13T01:26:57.307Z,995.5998535
2022-09-13T01:27:55.792Z,995.6824341
2022-09-13T01:28:52.852Z,995.5996704
2022-09-13T01:29:51.832Z,995.6609497
2022-09-13T01:30:58.414Z,995.5568848
2022-09-13T01:31:54.795Z,995.612793
2022-09-13T01:32:56.766Z,995.5967407
2022-09-13T01:33:49.598Z,995.5621948
2022-09-13T01:34:49.351Z,995.5700073
2022-09-13T01:35:44.562Z,995.5432739
2022-09-13T01:36:43.602Z,995.5005493
2022-09-13T01:37:39.108Z,995.4926758
2022-09-13T01:38:38.181Z,995.5485229
2022-09-13T01:39:36.182Z,995.5378418
2022-09-13T01:40:34.845Z,995.5057983
2022-09-13T01:41:36.786Z,995.5351563
2022-09-13T01:42:32.392Z,995.4657593
2022-09-13T01:43:32.722Z,995.5031128
2022-09-13T01:44:27.257Z,995.4176025
2022-09-13T01:45:32.490Z,995.4976807
2022-09-13T01:46:24.493Z,995.3641968
2022-09-13T01:47:23.056Z,995.4415894
2022-09-13T01:48:22.565Z,995.4229736
2022-09-13T01:50:24.536Z,995.4709473
2022-09-13T01:51:24.190Z,995.4176025
2022-09-13T01:52:20.662Z,995.449707
2022-09-13T01:53:23.231Z,995.350769
2022-09-13T01:54:17.139Z,995.4390869
2022-09-13T01:55:21.543Z,995.3643799
2022-09-13T01:56:15.136Z,995.4447021
2022-09-13T01:57:18.469Z,995.4793091
2022-09-13T01:58:13.130Z,995.4953003
2022-09-13T02:00:19.713Z,995.3968506
2022-09-13T02:00:44.326Z,995.552124
2022-09-13T02:01:48.164Z,995.506897
2022-09-13T02:02:47.828Z,995.4403076
2022-09-13T02:03:46.004Z,995.4748535
2022-09-13T02:04:45.443Z,995.4187622
2022-09-13T02:05:43.460Z,995.378418
2022-09-13T02:06:43.169Z,995.4240112
2022-09-13T02:07:41.185Z,995.4506836
2022-09-13T02:08:43.916Z,995.4720459
2022-09-13T02:09:39.313Z,995.4665527
2022-09-13T02:10:45.131Z,995.4423218
2022-09-13T02:11:38.704Z,995.5091553
2022-09-13T02:12:40.297Z,995.4664307
2022-09-13T02:13:34.832Z,995.4528198
2022-09-13T02:14:36.777Z,995.3381348
2022-09-13T02:15:34.814Z,995.4581909
2022-09-13T02:16:35.225Z,995.4848633
2022-09-13T02:17:31.575Z,995.4581909
2022-09-13T02:18:31.271Z,995.4555664
2022-09-13T02:19:26.581Z,995.4395142
2022-09-13T02:20:25.748Z,995.4874878
2022-09-13T02:21:21.312Z,995.4714355
2022-09-13T02:22:20.957Z,995.4659424
2022-09-13T02:23:18.839Z,995.4605713
2022-09-13T02:25:14.668Z,995.4417114
2022-09-13T02:26:13.935Z,995.4472046
2022-09-13T02:27:14.842Z,995.4820557
2022-09-13T02:28:12.785Z,995.5193481
2022-09-13T02:29:14.109Z,995.4232178
2022-09-13T02:30:06.586Z,995.4871826
2022-09-13T02:31:08.907Z,995.4765625
2022-09-13T02:32:01.285Z,995.4845581
2022-09-13T02:33:09.065Z,995.4820557
2022-09-13T02:37:30.067Z,995.3640137
2022-09-13T02:38:51.370Z,995.4227905
2022-09-13T02:39:57.988Z,995.4145508
2022-09-13T02:40:59.414Z,995.4807739
2022-09-13T02:41:54.611Z,995.3951416
2022-09-13T02:42:54.198Z,995.4491577
2022-09-13T02:43:50.963Z,995.4227905
2022-09-13T02:45:52.438Z,995.3721313
2022-09-13T02:46:52.126Z,995.345459
2022-09-13T02:47:48.529Z,995.390625
2022-09-13T02:48:47.315Z,995.3345337
2022-09-13T02:49:43.603Z,995.3665771
2022-09-13T02:50:43.029Z,995.3529663
2022-09-13T02:51:39.311Z,995.3527832
2022-09-13T02:52:37.522Z,995.3206177
2022-09-13T02:53:36.615Z,995.2510986
2022-09-13T02:54:34.046Z,995.3040771
2022-09-13T02:55:37.632Z,995.3013916
2022-09-13T02:56:39.448Z,995.2824707
2022-09-13T02:57:41.613Z,995.3331909
2022-09-13T02:58:40.866Z,995.3278198
2022-09-13T02:59:38.718Z,995.3464355
2022-09-13T03:00:31.890Z,995.3624268
2022-09-13T03:01:32.829Z,995.3278198
2022-09-13T03:02:28.046Z,995.4371338
2022-09-13T03:03:26.218Z,995.4690552
2022-09-13T03:04:24.210Z,995.4450684
2022-09-13T03:05:24.728Z,995.3968506
2022-09-13T03:06:19.205Z,995.423584
2022-09-13T03:07:27.942Z,995.4260864
2022-09-13T03:08:19.784Z,995.4260864
2022-09-13T03:09:20.883Z,995.4821777
2022-09-13T03:10:12.472Z,995.4099731
2022-09-13T03:11:11.223Z,995.4579468
2022-09-13T03:12:04.475Z,995.4768677
2022-09-13T03:13:03.213Z,995.4607544
2022-09-13T03:13:56.653Z,995.4714355
2022-09-13T03:14:57.088Z,995.5165405
2022-09-13T03:15:54.288Z,995.5111694
2022-09-13T03:16:57.778Z,995.5085449
2022-09-13T03:17:55.951Z,995.4818726
2022-09-13T03:18:50.129Z,995.4924316
2022-09-13T03:19:47.635Z,995.5270386
2022-09-13T03:20:45.611Z,995.5591431
2022-09-13T03:21:49.628Z,995.513916
2022-09-13T03:22:45.914Z,995.5351563
2022-09-13T03:23:47.031Z,995.5803833
2022-09-13T03:24:39.134Z,995.6443481
2022-09-13T03:25:40.765Z,995.6443481
2022-09-13T03:26:38.604Z,995.5750122
2022-09-13T03:27:42.402Z,995.5670166
2022-09-13T03:28:38.075Z,995.6016235
2022-09-13T03:31:48.824Z,995.5791626
2022-09-13T03:33:19.058Z,995.5769653
2022-09-13T03:34:02.183Z,995.6118774
2022-09-13T03:34:59.781Z,995.4943848
2022-09-13T03:35:59.927Z,995.5928955
2022-09-13T03:36:56.002Z,995.5016479
2022-09-13T03:38:03.978Z,995.611084
2022-09-13T03:40:09.669Z,995.5679932
2022-09-13T03:41:04.850Z,995.6051636
2022-09-13T03:42:06.861Z,995.5836182
2022-09-13T03:43:10.649Z,995.5032959
2022-09-13T03:45:04.461Z,995.5215454
2022-09-13T03:46:06.225Z,995.5164185
2022-09-13T03:47:07.631Z,995.489502
2022-09-13T03:48:00.176Z,995.4973145
2022-09-13T03:49:04.861Z,995.4734497
2022-09-13T03:49:57.359Z,995.465332
2022-09-13T03:50:56.560Z,995.4331055
2022-09-13T03:51:52.174Z,995.4810791
2022-09-13T03:52:51.632Z,995.4037476
2022-09-13T03:53:50.026Z,995.4249878
2022-09-13T03:54:50.730Z,995.4089355
2022-09-13T03:55:45.968Z,995.4220581
2022-09-13T03:56:44.802Z,995.3792114
2022-09-13T03:57:40.201Z,995.3392334
2022-09-13T03:58:41.756Z,995.3417358
2022-09-13T03:59:34.645Z,995.3150024
2022-09-13T04:00:37.051Z,995.3362427
2022-09-13T04:01:39.600Z,995.3308105
2022-09-13T04:02:33.205Z,995.2856445
2022-09-13T04:03:31.025Z,995.3123169
2022-09-13T04:05:26.759Z,995.3253174
2022-09-13T04:06:23.161Z,995.3092041
2022-09-13T04:07:24.446Z,995.3999023
2022-09-13T04:08:20.271Z,995.3143921
2022-09-13T04:09:17.613Z,995.3171997
2022-09-13T04:10:20.205Z,995.3035889
2022-09-13T04:11:16.691Z,995.2714233
2022-09-13T04:12:18.541Z,995.2901611
2022-09-13T04:13:11.748Z,995.3192749
2022-09-13T04:14:14.638Z,995.2368774
2022-09-13T04:15:09.890Z,995.2901611
2022-09-13T04:16:08.951Z,995.2874756
2022-09-13T04:17:40.107Z,995.2662354
2022-09-13T04:18:19.267Z,995.2104492
2022-09-13T04:19:17.715Z,995.2826538
2022-09-13T04:20:19.136Z,995.2746582
2022-09-13T04:21:20.850Z,995.3143921
2022-09-13T04:22:23.358Z,995.2556152
2022-09-13T04:23:17.906Z,995.239502
2022-09-13T04:25:15.953Z,995.210144
2022-09-13T04:26:18.485Z,995.3007813
2022-09-13T04:27:14.139Z,995.2393188
2022-09-13T04:28:15.247Z,995.2338257
2022-09-13T04:30:18.374Z,995.2443848
2022-09-13T04:31:13.859Z,995.1937256
2022-09-13T04:32:15.587Z,995.2310791
2022-09-13T04:33:13.613Z,995.2174072
2022-09-13T04:34:16.202Z,995.1934204
2022-09-13T04:35:12.762Z,995.2920532
2022-09-13T04:36:08.879Z,995.2814331
2022-09-13T04:37:11.577Z,995.3269043
2022-09-13T04:38:09.973Z,995.2546997
2022-09-13T04:39:09.989Z,995.3347168
2022-09-13T04:40:04.605Z,995.2895508
2022-09-13T04:41:07.701Z,995.3934937
2022-09-13T04:42:06.965Z,995.335022
2022-09-13T04:43:06.824Z,995.359314
2022-09-13T04:44:02.605Z,995.399292
2022-09-13T04:45:03.072Z,995.3513794
2022-09-13T04:46:00.242Z,995.2820435
2022-09-13T04:47:07.335Z,995.3381348
2022-09-13T04:48:05.098Z,995.3671875
2022-09-13T04:49:02.004Z,995.3671875
2022-09-13T04:49:57.168Z,995.4926758
2022-09-13T04:50:57.128Z,995.4578247
2022-09-13T04:51:57.334Z,995.4151001
2022-09-13T04:53:01.288Z,995.4177856
2022-09-13T04:53:55.514Z,995.3911133
2022-09-13T04:54:57.258Z,995.3723145
2022-09-13T04:55:55.122Z,995.3668823
2022-09-13T04:57:01.521Z,995.3775024
2022-09-13T04:57:55.461Z,995.4229736
2022-09-13T04:58:57.465Z,995.4841309
2022-09-13T05:00:09.440Z,995.4786987
2022-09-13T05:01:16.260Z,995.3850098
2022-09-13T05:02:13.660Z,995.4916992
2022-09-13T05:03:18.950Z,995.5128174
2022-09-13T05:04:15.904Z,995.555603
2022-09-13T05:05:11.853Z,995.520752
2022-09-13T05:06:14.148Z,995.4893188
2022-09-13T05:07:09.426Z,995.4762573
2022-09-13T05:08:12.095Z,995.4389648
2022-09-13T05:10:05.402Z,995.4041138
2022-09-13T05:11:05.722Z,995.425293
2022-09-13T05:12:49.504Z,995.4151001
2022-09-13T05:13:39.167Z,995.4023438
2022-09-13T05:14:41.814Z,995.3544312
2022-09-13T05:15:38.055Z,995.3544312
2022-09-13T05:16:34.809Z,995.4102173
2022-09-13T05:17:34.764Z,995.4207764
2022-09-13T05:18:31.155Z,995.4608765
2022-09-13T05:19:40.227Z,995.473877
2022-09-13T05:20:35.569Z,995.4151001
2022-09-13T05:21:36.924Z,995.4071655
2022-09-13T05:22:32.243Z,995.428772
2022-09-13T05:23:30.252Z,995.4181519
2022-09-13T05:25:27.476Z,995.4232788
2022-09-13T05:26:29.712Z,995.4095459
2022-09-13T05:27:21.654Z,995.4389648
2022-09-13T05:28:21.066Z,995.3668823
2022-09-13T05:29:19.194Z,995.3775024
2022-09-13T05:30:28.754Z,995.3535156
2022-09-13T05:31:27.135Z,995.4280396
2022-09-13T05:32:26.802Z,995.3234253
2022-09-13T05:33:26.260Z,995.4034424
2022-09-13T05:34:22.798Z,995.4595337
2022-09-13T05:34:42.482Z,995.4085693
2022-09-13T05:35:42.393Z,995.3795166
2022-09-13T05:36:43.830Z,995.4407959
2022-09-13T05:37:40.084Z,995.4489136
2022-09-13T05:38:41.563Z,995.4568481
2022-09-13T05:40:00.716Z,995.4222412
2022-09-13T05:40:09.786Z,995.4222412
2022-09-13T05:40:11.988Z,995.4222412
2022-09-13T05:40:47.958Z,995.4092407
2022-09-13T05:41:43.321Z,995.4468994
2022-09-13T05:42:45.266Z,995.4284668
2022-09-13T05:43:41.017Z,995.4041138
2022-09-13T05:44:40.275Z,995.3934937
2022-09-13T05:45:35.475Z,995.3695068
2022-09-13T05:46:36.670Z,995.5214233
2022-09-13T05:47:32.983Z,995.4946899
2022-09-13T05:48:31.104Z,995.4441528
2022-09-13T05:49:33.319Z,995.4359131
2022-09-13T05:50:54.313Z,995.446228
2022-09-13T05:50:56.922Z,995.446228
2022-09-13T05:50:57.440Z,995.446228
2022-09-13T05:52:25.653Z,995.5114746
2022-09-13T05:53:18.011Z,995.5761108
2022-09-13T05:54:17.787Z,995.5709229
2022-09-13T05:55:14.035Z,995.6431274
2022-09-13T05:56:16.896Z,995.5709229
2022-09-13T05:57:13.265Z,995.5869751
2022-09-13T05:58:13.372Z,995.616394
2022-09-13T05:59:11.522Z,995.5787354
2022-09-13T06:00:12.492Z,995.5627441
2022-09-13T06:01:50.991Z,995.5651855
2022-09-13T06:02:17.483Z,995.5761108
2022-09-13T06:03:18.193Z,995.5739136
2022-09-13T06:05:17.551Z,995.645752
2022-09-13T06:06:15.683Z,995.6057739
2022-09-13T06:07:13.431Z,995.6188354
2022-09-13T06:08:13.544Z,995.5973511
2022-09-13T06:10:09.241Z,995.6105957
2022-09-13T06:11:07.764Z,995.6051636
2022-09-13T06:12:09.481Z,995.6584473
2022-09-13T06:13:06.537Z,995.6342163
2022-09-13T06:14:14.943Z,995.6287231
2022-09-13T06:15:07.984Z,995.6369629
2022-09-13T06:16:13.270Z,995.6342163
2022-09-13T06:17:08.127Z,995.6342163
2022-09-13T06:18:03.828Z,995.642395
2022-09-13T06:19:05.850Z,995.6503296
2022-09-13T06:19:59.669Z,995.6397095
2022-09-13T06:21:03.480Z,995.6235962
2022-09-13T06:22:02.723Z,995.607605
2022-09-13T06:23:05.160Z,995.6130371
2022-09-13T06:24:01.746Z,995.642395
2022-09-13T06:26:03.831Z,995.642395
2022-09-13T06:27:06.806Z,995.6530762
2022-09-13T06:28:04.935Z,995.6690674
2022-09-13T06:29:03.017Z,995.6557617
2022-09-13T06:30:04.963Z,995.6130371
2022-09-13T06:30:58.367Z,995.6557617
2022-09-13T06:31:58.346Z,995.6345215
2022-09-13T06:32:53.744Z,995.5999756
2022-09-13T06:34:00.703Z,995.5490723
2022-09-13T06:34:55.412Z,995.5758057
2022-09-13T06:35:55.748Z,995.5518188
2022-09-13T06:36:53.000Z,995.5758057
2022-09-13T06:37:54.000Z,995.4690552
2022-09-13T06:38:49.504Z,995.5596924
2022-09-13T06:39:54.885Z,995.5839233
2022-09-13T06:40:49.445Z,995.6105957
2022-09-13T06:41:55.379Z,995.5466309
2022-09-13T06:43:39.045Z,995.6190796
2022-09-13T06:45:20.436Z,995.6439209
2022-09-13T06:46:24.633Z,995.6439209
2022-09-13T06:46:25.574Z,995.6439209
2022-09-13T06:47:17.252Z,995.6358032
2022-09-13T06:48:13.490Z,995.6518555
2022-09-13T06:49:12.652Z,995.6035767
2022-09-13T06:50:16.233Z,995.5981445
2022-09-13T06:51:12.553Z,995.6087646
2022-09-13T06:52:12.329Z,995.635498
2022-09-13T06:53:07.418Z,995.6915894
2022-09-13T06:54:08.661Z,995.6834106
2022-09-13T06:55:06.714Z,995.6567383
2022-09-13T06:56:06.238Z,995.6888428
2022-09-13T06:57:05.200Z,995.6888428
2022-09-13T06:58:04.144Z,995.6809082
2022-09-13T06:58:59.438Z,995.6193848
2022-09-13T06:59:56.907Z,995.5714722
2022-09-13T07:00:56.348Z,995.7237549
2022-09-13T07:01:50.972Z,995.5981445
2022-09-13T07:02:50.141Z,995.5635986
2022-09-13T07:03:48.496Z,995.6542969
2022-09-13T07:05:51.500Z,995.6303101
2022-09-13T07:06:44.137Z,995.5905762
2022-09-13T07:07:43.408Z,995.5371704
2022-09-13T07:08:38.175Z,995.5772095
2022-09-13T07:10:34.416Z,995.5131836
2022-09-13T07:11:35.445Z,995.609375
2022-09-13T07:12:31.749Z,995.633606
2022-09-13T07:13:32.620Z,995.6923218
2022-09-13T07:14:25.019Z,995.6468506
2022-09-13T07:15:27.076Z,995.6339111
2022-09-13T07:16:24.577Z,995.62323
2022-09-13T07:17:31.311Z,995.6283569
2022-09-13T07:18:26.415Z,995.6177368
2022-09-13T07:19:20.819Z,995.6314087
2022-09-13T07:20:22.088Z,995.7062378
2022-09-13T07:21:14.565Z,995.6500854
2022-09-13T07:22:14.879Z,995.6288452
2022-09-13T07:23:14.746Z,995.6370239
2022-09-13T07:24:12.747Z,995.7492065
2022-09-13T07:25:12.557Z,995.5701294
2022-09-13T07:26:07.116Z,995.7012329
2022-09-13T07:27:55.598Z,995.6907959
2022-09-13T07:28:41.900Z,995.6482544
2022-09-13T07:29:41.166Z,995.6615601
2022-09-13T07:30:41.977Z,995.6484375
2022-09-13T07:31:39.136Z,995.6296387
2022-09-13T07:32:41.843Z,995.6723633
2022-09-13T07:33:38.305Z,995.6912231
2022-09-13T07:35:37.962Z,995.7606812
2022-09-13T07:36:39.041Z,995.7072754
2022-09-13T07:37:35.677Z,995.6884155
2022-09-13T07:38:37.668Z,995.675293
2022-09-13T07:39:34.647Z,995.6779785
2022-09-13T07:40:37.355Z,995.6673584
2022-09-13T07:41:33.767Z,995.7371216
2022-09-13T07:42:35.154Z,995.6651611
2022-09-13T07:43:31.895Z,995.654541
2022-09-13T07:44:34.589Z,995.6972656
2022-09-13T07:45:33.662Z,995.6517334
2022-09-13T07:46:31.140Z,995.7026367
2022-09-13T07:47:32.379Z,995.7722168
2022-09-13T07:48:33.251Z,995.7561035
2022-09-13T07:49:34.385Z,995.7240601
2022-09-13T07:50:31.056Z,995.7507935
2022-09-13T07:51:35.433Z,995.7028198
2022-09-13T07:52:32.061Z,995.6838989
2022-09-13T07:53:36.671Z,995.7106934
2022-09-13T07:54:31.831Z,995.782959
2022-09-13T07:55:31.249Z,995.8336182
2022-09-13T07:56:33.927Z,995.7616577
2022-09-13T07:57:28.144Z,995.822998
2022-09-13T07:58:30.371Z,995.7937622
2022-09-13T07:59:31.663Z,995.7749023
2022-09-13T08:00:28.294Z,995.8015747
2022-09-13T08:01:32.826Z,995.7831421
2022-09-13T08:02:31.146Z,995.7296753
2022-09-13T08:03:34.726Z,995.7402954
2022-09-13T08:04:34.479Z,995.7991333
2022-09-13T08:04:36.504Z,995.7991333
2022-09-13T08:05:35.333Z,995.777832
2022-09-13T08:06:30.645Z,995.7190552
2022-09-13T08:07:34.816Z,995.7779541
2022-09-13T08:08:34.869Z,995.7912598
2022-09-13T08:09:36.474Z,995.8339844
2022-09-13T08:10:34.569Z,995.8607178
2022-09-13T08:11:38.628Z,995.7751465
2022-09-13T08:14:00.940Z,995.8822632
2022-09-13T08:14:42.390Z,995.9012451
2022-09-13T08:15:43.646Z,995.9332886
2022-09-13T08:16:45.598Z,995.9332886
2022-09-13T08:17:43.080Z,995.9732666
2022-09-13T08:18:45.339Z,995.9838867
2022-09-13T08:20:42.102Z,995.9866943
2022-09-13T08:21:46.329Z,996.0507813
2022-09-13T08:22:44.208Z,996.0426636
2022-09-13T08:23:47.441Z,995.9624023
2022-09-13T08:24:43.882Z,995.9624023
2022-09-13T08:25:48.233Z,996.104248
2022-09-13T08:26:45.119Z,995.9973145
2022-09-13T08:27:41.846Z,996.0106201
2022-09-13T08:28:45.940Z,996.0615845
2022-09-13T08:29:40.324Z,995.9625244
2022-09-13T08:30:42.433Z,996.0134888
2022-09-13T08:31:39.759Z,995.9412231
2022-09-13T08:32:41.571Z,996.0189209
2022-09-13T08:33:44.211Z,995.9707642
2022-09-13T08:33:46.746Z,995.9707642
2022-09-13T08:35:39.353Z,995.9335938
2022-09-13T08:36:39.851Z,995.989624
2022-09-13T08:37:42.962Z,996.0217285
2022-09-13T08:38:38.340Z,995.9735718
2022-09-13T08:39:42.941Z,995.9254761
2022-09-13T08:40:37.733Z,995.9657593
2022-09-13T08:41:42.657Z,995.9710693
2022-09-13T08:42:37.209Z,995.8934326
2022-09-13T08:43:42.030Z,995.9604492
2022-09-13T08:44:37.243Z,995.8962402
2022-09-13T08:45:41.783Z,995.9337769
2022-09-13T08:46:37.851Z,995.9123535
2022-09-13T08:47:37.307Z,995.9176636
2022-09-13T08:48:41.281Z,995.8773193
2022-09-13T08:49:36.491Z,995.90979
2022-09-13T08:50:40.894Z,995.9043579
2022-09-13T08:51:35.812Z,995.84552
2022-09-13T08:52:39.137Z,995.9124756
2022-09-13T08:53:38.586Z,995.8668823
2022-09-13T08:54:36.764Z,995.8241577
2022-09-13T08:55:38.615Z,995.8590698
2022-09-13T08:56:35.830Z,995.8134155
2022-09-13T08:57:37.701Z,995.8483887
2022-09-13T08:58:36.671Z,995.8911133
2022-09-13T08:59:41.276Z,995.8376465
2022-09-13T09:00:36.306Z,995.8429565
2022-09-13T09:01:38.061Z,995.7948608
2022-09-13T09:02:35.449Z,995.8001709
2022-09-13T09:04:14.866Z,995.8398438
2022-09-13T09:06:40.380Z,995.7929077
2022-09-13T09:07:05.386Z,995.8248291
2022-09-13T09:08:02.176Z,995.829834
2022-09-13T09:09:00.963Z,995.8353271
2022-09-13T09:10:54.394Z,995.8465576
2022-09-13T09:11:48.702Z,995.8092041
2022-09-13T09:12:46.853Z,995.8251343
2022-09-13T09:13:41.129Z,995.8225098
2022-09-13T09:15:33.915Z,995.8791504
2022-09-13T09:16:31.945Z,995.828125
2022-09-13T09:17:26.159Z,995.8336182
2022-09-13T09:18:23.964Z,995.8258057
2022-09-13T09:19:18.034Z,995.8740845
2022-09-13T09:20:18.973Z,995.8204956
2022-09-13T09:21:12.106Z,995.8364868
2022-09-13T09:22:10.569Z,995.8443604
2022-09-13T09:23:04.800Z,995.8336182
2022-09-13T09:24:03.095Z,995.8364868
2022-09-13T09:25:56.164Z,995.8577881
2022-09-13T09:26:50.479Z,995.7853394
2022-09-13T09:27:48.919Z,995.828125
2022-09-13T09:28:43.312Z,995.8709106
2022-09-13T09:29:41.446Z,995.916626
2022-09-13T09:30:41.370Z,995.8898315
2022-09-13T09:31:32.737Z,995.8602295
2022-09-13T09:32:28.657Z,995.8922729
2022-09-13T09:33:27.272Z,995.8546753
2022-09-13T09:35:22.741Z,995.833252
2022-09-13T09:36:14.453Z,995.803894
2022-09-13T09:37:15.783Z,995.8706055
2022-09-13T09:38:07.280Z,995.8382568
2022-09-13T09:39:08.263Z,995.8115845
2022-09-13T09:39:59.741Z,995.7902832
2022-09-13T09:40:58.498Z,995.7877197
2022-09-13T09:41:53.797Z,995.8145142
2022-09-13T09:42:51.545Z,995.7985229
2022-09-13T09:43:45.998Z,995.7609253
2022-09-13T09:44:46.294Z,995.779541
2022-09-13T09:46:09.986Z,995.8009644
2022-09-13T09:46:50.086Z,995.7686157
2022-09-13T09:47:49.252Z,995.7872925
2022-09-13T09:48:51.200Z,995.8032837
2022-09-13T09:50:41.702Z,995.8325195
2022-09-13T09:51:40.884Z,995.7253418
2022-09-13T09:52:40.753Z,995.7948608
2022-09-13T09:53:37.284Z,995.7067261
2022-09-13T09:55:37.426Z,995.835144
2022-09-13T09:56:37.343Z,995.7733765
2022-09-13T09:57:33.658Z,995.746582
2022-09-13T09:58:33.569Z,995.7438965
2022-09-13T10:00:29.612Z,995.6818848
2022-09-13T10:01:25.918Z,995.6737671
2022-09-13T10:02:28.247Z,995.7594604
2022-09-13T10:03:21.214Z,995.7111206
2022-09-13T10:04:22.343Z,995.7029419
2022-09-13T10:05:18.559Z,995.6359253
2022-09-13T10:06:18.227Z,995.7215576
2022-09-13T10:07:15.732Z,995.6490479
2022-09-13T10:08:13.712Z,995.664978
2022-09-13T10:09:08.923Z,995.664978
2022-09-13T10:11:04.655Z,995.7023315
2022-09-13T10:12:08.481Z,995.7529907
2022-09-13T10:13:02.848Z,995.6751709
2022-09-13T10:14:00.096Z,995.6643677
2022-09-13T10:15:55.526Z,995.6640625
2022-09-13T10:16:58.240Z,995.6559448
2022-09-13T10:17:51.393Z,995.6532593
2022-09-13T10:18:51.677Z,995.677124
2022-09-13T10:19:47.136Z,995.6691895
2022-09-13T10:20:46.879Z,995.682373
2022-09-13T10:21:43.047Z,995.6875
2022-09-13T10:22:42.994Z,995.7224731
2022-09-13T10:23:39.586Z,995.7143555
2022-09-13T10:25:38.941Z,995.6257324
2022-09-13T10:26:41.651Z,995.6845093
2022-09-13T10:28:05.728Z,995.6469727
2022-09-13T10:28:45.992Z,995.6599731
2022-09-13T10:29:51.538Z,995.6920166
2022-09-13T10:30:46.653Z,995.6276855
2022-09-13T10:31:42.114Z,995.6625977
2022-09-13T10:32:41.619Z,995.6893921
2022-09-13T10:33:36.789Z,995.6358032
2022-09-13T10:34:36.493Z,995.6920166
2022-09-13T10:35:31.786Z,995.6414185
2022-09-13T10:36:52.103Z,995.7058105
2022-09-13T10:36:53.319Z,995.7058105
2022-09-13T10:36:53.681Z,995.7058105
2022-09-13T10:37:31.007Z,995.6331787
2022-09-13T10:38:26.676Z,995.6220093
2022-09-13T10:39:26.543Z,995.6945801
2022-09-13T10:41:27.169Z,995.6968994
2022-09-13T10:42:23.427Z,995.6646729
2022-09-13T10:43:24.026Z,995.6911011
2022-09-13T10:44:20.178Z,995.6404419
2022-09-13T10:46:17.270Z,995.581543
2022-09-13T10:47:20.335Z,995.5950928
2022-09-13T10:48:17.111Z,995.6860962
2022-09-13T10:49:20.227Z,995.6729736
2022-09-13T10:50:12.959Z,995.6570435
2022-09-13T10:51:16.687Z,995.6409302
2022-09-13T10:52:14.360Z,995.5951538
2022-09-13T10:53:11.544Z,995.6755981
2022-09-13T10:54:06.952Z,995.6461792
2022-09-13T10:56:01.935Z,995.6032715
2022-09-13T10:57:00.397Z,995.630127
2022-09-13T10:57:59.999Z,995.5951538
2022-09-13T10:58:54.936Z,995.6945801
2022-09-13T10:59:55.677Z,995.6972656
2022-09-13T11:00:51.294Z,995.6358032
2022-09-13T11:01:52.862Z,995.6972656
2022-09-13T11:02:48.284Z,995.6543579
2022-09-13T11:03:50.764Z,995.5310669
2022-09-13T11:05:41.230Z,995.5363159
2022-09-13T11:06:38.578Z,995.5176392
2022-09-13T11:07:36.809Z,995.5471802
2022-09-13T11:09:21.884Z,995.5332642
2022-09-13T11:11:00.729Z,995.5783081
2022-09-13T11:12:00.168Z,995.5595093
2022-09-13T11:12:54.830Z,995.5513916
2022-09-13T11:13:54.169Z,995.6240845
2022-09-13T11:14:50.610Z,995.5651855
2022-09-13T11:15:50.616Z,995.5491943
2022-09-13T11:16:45.875Z,995.4873657
2022-09-13T11:17:46.147Z,995.5331421